sensor_id;sensor_type;location;lat;lon;timestamp;pressure;altitude;pressure_sealevel;temperature;humidity
74228;BME280;62587;52.352;5.006;2022-10-31T00:01:22;102008.28;;;22.90;58.44
74228;BME280;62587;52.352;5.006;2022-10-31T00:03:48;102010.06;;;22.90;58.47
74228;BME280;62587;52.352;5.006;2022-10-31T00:06:14;102009.31;;;22.88;59.26
74228;BME280;62587;52.352;5.006;2022-10-31T00:08:40;102015.06;;;22.82;58.87
74228;BME280;62587;52.352;5.006;2022-10-31T00:11:09;102013.44;;;22.79;59.16
74228;BME280;62587;52.352;5.006;2022-10-31T00:13:34;102005.13;;;22.84;59.42
74228;BME280;62587;52.352;5.006;2022-10-31T00:16:00;102011.81;;;22.91;59.25
74228;BME280;62587;52.352;5.006;2022-10-31T00:18:25;102019.81;;;22.91;59.39
74228;BME280;62587;52.352;5.006;2022-10-31T00:21:01;102009.13;;;22.91;58.80
74228;BME280;62587;52.352;5.006;2022-10-31T00:23:27;102013.91;;;22.86;59.33
74228;BME280;62587;52.352;5.006;2022-10-31T00:25:52;102018.28;;;22.87;59.27
74228;BME280;62587;52.352;5.006;2022-10-31T00:28:18;102019.06;;;22.89;59.06
74228;BME280;62587;52.352;5.006;2022-10-31T00:30:43;102024.28;;;22.90;59.05
74228;BME280;62587;52.352;5.006;2022-10-31T00:33:08;102021.44;;;22.93;58.43
74228;BME280;62587;52.352;5.006;2022-10-31T00:35:33;102024.13;;;22.93;58.49
74228;BME280;62587;52.352;5.006;2022-10-31T00:37:59;102021.81;;;22.87;58.38
74228;BME280;62587;52.352;5.006;2022-10-31T00:40:25;102023.84;;;22.84;58.50
74228;BME280;62587;52.352;5.006;2022-10-31T00:42:50;102024.78;;;22.83;58.31
74228;BME280;62587;52.352;5.006;2022-10-31T00:45:15;102015.91;;;22.82;58.41
74228;BME280;62587;52.352;5.006;2022-10-31T00:47:40;102021.91;;;22.86;58.30
74228;BME280;62587;52.352;5.006;2022-10-31T00:50:06;102012.56;;;22.93;58.39
74228;BME280;62587;52.352;5.006;2022-10-31T00:52:32;102020.19;;;22.99;58.17
74228;BME280;62587;52.352;5.006;2022-10-31T00:54:58;102020.41;;;22.96;57.96
74228;BME280;62587;52.352;5.006;2022-10-31T00:57:23;102015.22;;;22.93;58.00
74228;BME280;62587;52.352;5.006;2022-10-31T00:59:48;102015.72;;;22.85;58.43
74228;BME280;62587;52.352;5.006;2022-10-31T01:02:14;102021.06;;;22.85;58.32
74228;BME280;62587;52.352;5.006;2022-10-31T01:04:39;102029.06;;;22.85;58.34
74228;BME280;62587;52.352;5.006;2022-10-31T01:07:04;102025.63;;;22.83;58.24
74228;BME280;62587;52.352;5.006;2022-10-31T01:09:30;102030.78;;;22.86;57.96
74228;BME280;62587;52.352;5.006;2022-10-31T01:11:55;102028.13;;;22.86;57.79
74228;BME280;62587;52.352;5.006;2022-10-31T01:14:20;102023.72;;;22.85;57.62
74228;BME280;62587;52.352;5.006;2022-10-31T01:16:45;102021.06;;;22.85;57.33
74228;BME280;62587;52.352;5.006;2022-10-31T01:19:11;102016.56;;;22.86;57.34
74228;BME280;62587;52.352;5.006;2022-10-31T01:21:36;102018.28;;;22.87;57.25
74228;BME280;62587;52.352;5.006;2022-10-31T01:24:02;102009.50;;;22.85;57.06
74228;BME280;62587;52.352;5.006;2022-10-31T01:26:30;102016.69;;;22.84;56.85
74228;BME280;62587;52.352;5.006;2022-10-31T01:28:57;102014.19;;;22.81;57.00
74228;BME280;62587;52.352;5.006;2022-10-31T01:31:25;102013.22;;;22.82;57.01
74228;BME280;62587;52.352;5.006;2022-10-31T01:33:50;102008.09;;;22.79;56.85
74228;BME280;62587;52.352;5.006;2022-10-31T01:36:23;102001.97;;;22.77;56.86
74228;BME280;62587;52.352;5.006;2022-10-31T01:38:49;102001.13;;;22.77;56.90
74228;BME280;62587;52.352;5.006;2022-10-31T01:41:18;102001.13;;;22.77;56.64
74228;BME280;62587;52.352;5.006;2022-10-31T01:43:47;102004.75;;;22.76;56.77
74228;BME280;62587;52.352;5.006;2022-10-31T01:46:16;102000.44;;;22.73;56.56
74228;BME280;62587;52.352;5.006;2022-10-31T01:48:42;102006.66;;;22.74;56.53
74228;BME280;62587;52.352;5.006;2022-10-31T01:51:08;101997.72;;;22.75;56.44
74228;BME280;62587;52.352;5.006;2022-10-31T01:53:35;101994.25;;;22.73;56.40
74228;BME280;62587;52.352;5.006;2022-10-31T01:56:01;101992.56;;;22.72;56.46
74228;BME280;62587;52.352;5.006;2022-10-31T01:58:28;101990.75;;;22.72;56.28
74228;BME280;62587;52.352;5.006;2022-10-31T02:00:58;101988.91;;;22.73;56.13
74228;BME280;62587;52.352;5.006;2022-10-31T02:03:25;101998.84;;;22.71;55.88
74228;BME280;62587;52.352;5.006;2022-10-31T02:05:53;101999.81;;;22.70;56.07
74228;BME280;62587;52.352;5.006;2022-10-31T02:08:27;101997.13;;;22.70;56.18
74228;BME280;62587;52.352;5.006;2022-10-31T02:10:53;102000.75;;;22.68;55.79
74228;BME280;62587;52.352;5.006;2022-10-31T02:13:19;101997.97;;;22.70;55.67
74228;BME280;62587;52.352;5.006;2022-10-31T02:15:50;101989.19;;;22.68;55.71
74228;BME280;62587;52.352;5.006;2022-10-31T02:18:17;101991.88;;;22.68;55.87
74228;BME280;62587;52.352;5.006;2022-10-31T02:21:07;101985.59;;;22.69;55.73
74228;BME280;62587;52.352;5.006;2022-10-31T02:27:02;101986.53;;;22.68;55.70
74228;BME280;62587;52.352;5.006;2022-10-31T02:29:54;101990.94;;;22.69;55.55
74228;BME280;62587;52.352;5.006;2022-10-31T02:40:39;101992.84;;;22.67;55.23
74228;BME280;62587;52.352;5.006;2022-10-31T02:43:19;101984.91;;;22.65;55.38
74228;BME280;62587;52.352;5.006;2022-10-31T02:48:28;101988.34;;;22.67;55.00
74228;BME280;62587;52.352;5.006;2022-10-31T02:50:58;101991.13;;;22.66;55.23
74228;BME280;62587;52.352;5.006;2022-10-31T02:53:24;101991.00;;;22.67;55.20
74228;BME280;62587;52.352;5.006;2022-10-31T02:55:56;101984.06;;;22.65;54.98
74228;BME280;62587;52.352;5.006;2022-10-31T02:58:26;101984.25;;;22.62;55.09
74228;BME280;62587;52.352;5.006;2022-10-31T03:06:32;101987.69;;;22.64;54.83
74228;BME280;62587;52.352;5.006;2022-10-31T03:11:29;101992.09;;;22.65;54.85
74228;BME280;62587;52.352;5.006;2022-10-31T03:14:09;101988.63;;;22.63;54.98
74228;BME280;62587;52.352;5.006;2022-10-31T03:16:50;101995.69;;;22.64;54.70
74228;BME280;62587;52.352;5.006;2022-10-31T03:19:36;101996.63;;;22.63;55.05
74228;BME280;62587;52.352;5.006;2022-10-31T03:22:12;102000.16;;;22.63;54.64
74228;BME280;62587;52.352;5.006;2022-10-31T03:24:41;101999.31;;;22.63;54.70
74228;BME280;62587;52.352;5.006;2022-10-31T03:27:11;101992.25;;;22.62;54.63
74228;BME280;62587;52.352;5.006;2022-10-31T03:29:39;101989.63;;;22.60;54.63
74228;BME280;62587;52.352;5.006;2022-10-31T03:34:38;101993.19;;;22.61;54.67
74228;BME280;62587;52.352;5.006;2022-10-31T03:37:06;101993.19;;;22.61;54.45
74228;BME280;62587;52.352;5.006;2022-10-31T03:39:32;101979.84;;;22.61;54.64
74228;BME280;62587;52.352;5.006;2022-10-31T03:42:11;101990.59;;;22.59;54.53
74228;BME280;62587;52.352;5.006;2022-10-31T03:44:38;101989.63;;;22.60;54.37
74228;BME280;62587;52.352;5.006;2022-10-31T03:47:06;101995.88;;;22.61;54.53
74228;BME280;62587;52.352;5.006;2022-10-31T03:49:32;101995.09;;;22.59;54.43
74228;BME280;62587;52.352;5.006;2022-10-31T03:52:02;102001.28;;;22.59;54.32
74228;BME280;62587;52.352;5.006;2022-10-31T04:00:00;102007.56;;;22.58;54.52
74228;BME280;62587;52.352;5.006;2022-10-31T04:02:31;102006.63;;;22.59;54.47
74228;BME280;62587;52.352;5.006;2022-10-31T04:04:58;102000.41;;;22.59;54.29
74228;BME280;62587;52.352;5.006;2022-10-31T04:07:27;101999.56;;;22.58;54.22
74228;BME280;62587;52.352;5.006;2022-10-31T04:09:56;101996.22;;;22.55;54.07
74228;BME280;62587;52.352;5.006;2022-10-31T04:12:24;101999.66;;;22.57;54.36
74228;BME280;62587;52.352;5.006;2022-10-31T04:14:51;102001.34;;;22.58;54.08
74228;BME280;62587;52.352;5.006;2022-10-31T04:17:20;101998.78;;;22.56;54.31
74228;BME280;62587;52.352;5.006;2022-10-31T04:19:47;102000.41;;;22.59;54.26
74228;BME280;62587;52.352;5.006;2022-10-31T04:22:12;102002.22;;;22.58;54.06
74228;BME280;62587;52.352;5.006;2022-10-31T04:24:39;101996.03;;;22.58;54.15
74228;BME280;62587;52.352;5.006;2022-10-31T04:27:05;101994.31;;;22.57;54.05
74228;BME280;62587;52.352;5.006;2022-10-31T04:29:30;101998.69;;;22.58;54.17
74228;BME280;62587;52.352;5.006;2022-10-31T04:31:56;101989.91;;;22.56;53.95
74228;BME280;62587;52.352;5.006;2022-10-31T04:34:21;102003.09;;;22.59;53.99
74228;BME280;62587;52.352;5.006;2022-10-31T04:36:46;102002.44;;;22.55;53.81
74228;BME280;62587;52.352;5.006;2022-10-31T04:39:12;102003.19;;;22.57;54.06
74228;BME280;62587;52.352;5.006;2022-10-31T04:41:37;101999.66;;;22.57;53.96
74228;BME280;62587;52.352;5.006;2022-10-31T04:44:02;101999.66;;;22.57;54.06
74228;BME280;62587;52.352;5.006;2022-10-31T04:46:28;102004.25;;;22.55;53.96
74228;BME280;62587;52.352;5.006;2022-10-31T04:48:53;101996.41;;;22.52;53.82
74228;BME280;62587;52.352;5.006;2022-10-31T04:51:18;101998.16;;;22.53;53.88
74228;BME280;62587;52.352;5.006;2022-10-31T04:53:44;101996.22;;;22.55;53.94
74228;BME280;62587;52.352;5.006;2022-10-31T04:56:09;101995.47;;;22.53;53.75
74228;BME280;62587;52.352;5.006;2022-10-31T04:58:34;102001.56;;;22.55;53.62
74228;BME280;62587;52.352;5.006;2022-10-31T05:01:00;102001.66;;;22.53;53.65
74228;BME280;62587;52.352;5.006;2022-10-31T05:03:25;102000.72;;;22.54;53.72
74228;BME280;62587;52.352;5.006;2022-10-31T05:05:50;101999.84;;;22.54;53.78
74228;BME280;62587;52.352;5.006;2022-10-31T05:08:15;102006.91;;;22.55;53.72
74228;BME280;62587;52.352;5.006;2022-10-31T05:10:41;102001.56;;;22.55;53.66
74228;BME280;62587;52.352;5.006;2022-10-31T05:13:06;101990.78;;;22.56;53.63
74228;BME280;62587;52.352;5.006;2022-10-31T05:15:32;101983.75;;;22.55;53.63
74228;BME280;62587;52.352;5.006;2022-10-31T05:17:57;101985.56;;;22.55;53.35
74228;BME280;62587;52.352;5.006;2022-10-31T05:20:26;101987.38;;;22.54;53.54
74228;BME280;62587;52.352;5.006;2022-10-31T05:22:55;101982.03;;;22.54;53.18
74228;BME280;62587;52.352;5.006;2022-10-31T05:25:22;101976.69;;;22.54;53.48
74228;BME280;62587;52.352;5.006;2022-10-31T05:27:50;101985.44;;;22.56;53.31
74228;BME280;62587;52.352;5.006;2022-10-31T05:30:18;101988.22;;;22.55;53.37
74228;BME280;62587;52.352;5.006;2022-10-31T05:32:46;101988.31;;;22.53;53.00
74228;BME280;62587;52.352;5.006;2022-10-31T05:35:15;101975.94;;;22.52;53.26
74228;BME280;62587;52.352;5.006;2022-10-31T05:37:41;101969.72;;;22.52;53.22
74228;BME280;62587;52.352;5.006;2022-10-31T05:40:09;101967.91;;;22.52;53.28
74228;BME280;62587;52.352;5.006;2022-10-31T05:42:35;101974.00;;;22.54;53.72
74228;BME280;62587;52.352;5.006;2022-10-31T05:45:00;101964.22;;;22.55;53.93
74228;BME280;62587;52.352;5.006;2022-10-31T05:47:26;101966.00;;;22.54;53.75
74228;BME280;62587;52.352;5.006;2022-10-31T05:49:51;101974.94;;;22.53;53.99
74228;BME280;62587;52.352;5.006;2022-10-31T05:52:17;101965.31;;;22.51;53.66
74228;BME280;62587;52.352;5.006;2022-10-31T05:54:42;101967.81;;;22.54;53.89
74228;BME280;62587;52.352;5.006;2022-10-31T05:57:07;101965.16;;;22.54;53.88
74228;BME280;62587;52.352;5.006;2022-10-31T05:59:33;101964.28;;;22.53;53.74
74228;BME280;62587;52.352;5.006;2022-10-31T06:01:58;101961.59;;;22.53;53.66
74228;BME280;62587;52.352;5.006;2022-10-31T06:04:23;101957.25;;;22.52;53.86
74228;BME280;62587;52.352;5.006;2022-10-31T06:06:49;101950.94;;;22.53;53.57
74228;BME280;62587;52.352;5.006;2022-10-31T06:09:14;101948.25;;;22.53;53.81
74228;BME280;62587;52.352;5.006;2022-10-31T06:11:39;101943.13;;;22.50;53.63
74228;BME280;62587;52.352;5.006;2022-10-31T06:14:05;101945.69;;;22.52;53.49
74228;BME280;62587;52.352;5.006;2022-10-31T06:16:31;101946.56;;;22.52;53.50
74228;BME280;62587;52.352;5.006;2022-10-31T06:18:56;101951.91;;;22.52;53.60
74228;BME280;62587;52.352;5.006;2022-10-31T06:21:21;101953.72;;;22.52;53.48
74228;BME280;62587;52.352;5.006;2022-10-31T06:23:47;101943.97;;;22.51;53.33
74228;BME280;62587;52.352;5.006;2022-10-31T06:26:12;101950.28;;;22.50;53.72
74228;BME280;62587;52.352;5.006;2022-10-31T06:28:37;101954.66;;;22.51;53.30
74228;BME280;62587;52.352;5.006;2022-10-31T06:31:03;101948.66;;;22.47;53.47
74228;BME280;62587;52.352;5.006;2022-10-31T06:33:28;101959.16;;;22.50;53.34
74228;BME280;62587;52.352;5.006;2022-10-31T06:35:53;101969.91;;;22.49;53.17
74228;BME280;62587;52.352;5.006;2022-10-31T06:38:19;101960.97;;;22.50;53.15
74228;BME280;62587;52.352;5.006;2022-10-31T06:40:44;101968.09;;;22.49;53.15
74228;BME280;62587;52.352;5.006;2022-10-31T06:43:09;101969.91;;;22.49;53.11
74228;BME280;62587;52.352;5.006;2022-10-31T06:45:36;101965.44;;;22.49;53.01
74228;BME280;62587;52.352;5.006;2022-10-31T06:48:01;101965.53;;;22.48;52.99
74228;BME280;62587;52.352;5.006;2022-10-31T06:50:27;101962.88;;;22.48;52.99
74228;BME280;62587;52.352;5.006;2022-10-31T06:52:56;101965.53;;;22.48;53.01
74228;BME280;62587;52.352;5.006;2022-10-31T06:55:23;101960.28;;;22.46;53.18
74228;BME280;62587;52.352;5.006;2022-10-31T06:57:57;101962.06;;;22.46;53.07
74228;BME280;62587;52.352;5.006;2022-10-31T07:00:23;101967.34;;;22.47;53.02
74228;BME280;62587;52.352;5.006;2022-10-31T07:03:04;101968.28;;;22.46;53.11
74228;BME280;62587;52.352;5.006;2022-10-31T07:05:30;101960.38;;;22.45;52.88
74228;BME280;62587;52.352;5.006;2022-10-31T07:07:57;101967.41;;;22.46;52.97
74228;BME280;62587;52.352;5.006;2022-10-31T07:10:24;101970.94;;;22.46;52.86
74228;BME280;62587;52.352;5.006;2022-10-31T07:12:55;101974.66;;;22.44;52.88
74228;BME280;62587;52.352;5.006;2022-10-31T07:15:21;101978.97;;;22.46;52.70
74228;BME280;62587;52.352;5.006;2022-10-31T07:17:47;101978.09;;;22.46;52.81
74228;BME280;62587;52.352;5.006;2022-10-31T07:20:12;101979.06;;;22.45;52.94
74228;BME280;62587;52.352;5.006;2022-10-31T07:22:38;101980.00;;;22.44;52.86
74228;BME280;62587;52.352;5.006;2022-10-31T07:25:03;101980.75;;;22.46;52.88
74228;BME280;62587;52.352;5.006;2022-10-31T07:27:29;101982.50;;;22.47;52.84
74228;BME280;62587;52.352;5.006;2022-10-31T07:29:59;101984.28;;;22.46;52.68
74228;BME280;62587;52.352;5.006;2022-10-31T07:32:25;101980.88;;;22.44;52.86
74228;BME280;62587;52.352;5.006;2022-10-31T07:34:50;101986.31;;;22.43;52.85
74228;BME280;62587;52.352;5.006;2022-10-31T07:37:15;101986.19;;;22.44;52.89
74228;BME280;62587;52.352;5.006;2022-10-31T07:39:41;101987.06;;;22.45;53.03
74228;BME280;62587;52.352;5.006;2022-10-31T07:42:06;101981.72;;;22.45;52.88
74228;BME280;62587;52.352;5.006;2022-10-31T07:44:31;101991.44;;;22.46;52.88
74228;BME280;62587;52.352;5.006;2022-10-31T07:46:57;101999.38;;;22.47;52.94
74228;BME280;62587;52.352;5.006;2022-10-31T07:49:22;101997.75;;;22.45;53.01
74228;BME280;62587;52.352;5.006;2022-10-31T07:51:49;101994.03;;;22.47;52.91
74228;BME280;62587;52.352;5.006;2022-10-31T07:54:15;101998.31;;;22.50;53.00
74228;BME280;62587;52.352;5.006;2022-10-31T07:56:40;102004.53;;;22.50;52.94
74228;BME280;62587;52.352;5.006;2022-10-31T07:59:06;101998.97;;;22.53;52.84
74228;BME280;62587;52.352;5.006;2022-10-31T08:01:31;102000.59;;;22.56;52.75
74228;BME280;62587;52.352;5.006;2022-10-31T08:03:56;102005.09;;;22.55;52.81
74228;BME280;62587;52.352;5.006;2022-10-31T08:06:22;102006.91;;;22.55;52.60
74228;BME280;62587;52.352;5.006;2022-10-31T08:08:47;102000.59;;;22.56;52.74
74228;BME280;62587;52.352;5.006;2022-10-31T08:11:12;101997.84;;;22.57;52.81
74228;BME280;62587;52.352;5.006;2022-10-31T08:13:38;102004.81;;;22.60;53.75
74228;BME280;62587;52.352;5.006;2022-10-31T08:16:03;101998.53;;;22.61;54.58
74228;BME280;62587;52.352;5.006;2022-10-31T08:18:30;102000.16;;;22.63;55.15
74228;BME280;62587;52.352;5.006;2022-10-31T08:20:55;102001.47;;;22.56;55.69
74228;BME280;62587;52.352;5.006;2022-10-31T08:23:20;101995.94;;;22.59;55.50
74228;BME280;62587;52.352;5.006;2022-10-31T08:25:46;102002.84;;;22.63;55.22
74228;BME280;62587;52.352;5.006;2022-10-31T08:28:12;101998.47;;;22.62;55.31
74228;BME280;62587;52.352;5.006;2022-10-31T08:30:39;101998.53;;;22.61;54.97
74228;BME280;62587;52.352;5.006;2022-10-31T08:33:09;101993.03;;;22.64;54.90
74228;BME280;62587;52.352;5.006;2022-10-31T08:35:35;101992.91;;;22.65;54.77
74228;BME280;62587;52.352;5.006;2022-10-31T08:38:00;101999.13;;;22.66;54.69
74228;BME280;62587;52.352;5.006;2022-10-31T08:40:27;101999.00;;;22.67;54.56
74228;BME280;62587;52.352;5.006;2022-10-31T08:43:12;102000.63;;;22.70;54.79
74228;BME280;62587;52.352;5.006;2022-10-31T08:45:38;101991.78;;;22.70;54.32
74228;BME280;62587;52.352;5.006;2022-10-31T08:48:06;101995.22;;;22.72;54.53
74228;BME280;62587;52.352;5.006;2022-10-31T08:50:34;101987.09;;;22.73;54.18
74228;BME280;62587;52.352;5.006;2022-10-31T08:53:11;101981.00;;;22.71;53.86
74228;BME280;62587;52.352;5.006;2022-10-31T08:55:37;101982.81;;;22.71;54.01
74228;BME280;62587;52.352;5.006;2022-10-31T08:58:04;101979.09;;;22.73;53.93
74228;BME280;62587;52.352;5.006;2022-10-31T09:00:30;101972.81;;;22.74;53.55
74228;BME280;62587;52.352;5.006;2022-10-31T09:03:00;101974.72;;;22.72;53.64
74228;BME280;62587;52.352;5.006;2022-10-31T09:05:26;101973.00;;;22.71;53.66
74228;BME280;62587;52.352;5.006;2022-10-31T09:07:55;101979.19;;;22.72;53.76
74228;BME280;62587;52.352;5.006;2022-10-31T09:10:21;101966.72;;;22.72;53.58
74228;BME280;62587;52.352;5.006;2022-10-31T09:12:46;101959.53;;;22.73;53.27
74228;BME280;62587;52.352;5.006;2022-10-31T09:15:11;101953.38;;;22.72;53.38
74228;BME280;62587;52.352;5.006;2022-10-31T09:17:37;101961.28;;;22.74;53.22
74228;BME280;62587;52.352;5.006;2022-10-31T09:20:02;101967.47;;;22.74;53.29
74228;BME280;62587;52.352;5.006;2022-10-31T09:22:27;101961.38;;;22.72;53.05
74228;BME280;62587;52.352;5.006;2022-10-31T09:24:53;101962.22;;;22.73;53.13
74228;BME280;62587;52.352;5.006;2022-10-31T09:27:18;101961.38;;;22.72;52.95
74228;BME280;62587;52.352;5.006;2022-10-31T09:29:43;101962.22;;;22.73;52.95
74228;BME280;62587;52.352;5.006;2022-10-31T09:32:09;101955.06;;;22.73;52.98
74228;BME280;62587;52.352;5.006;2022-10-31T09:34:34;101952.31;;;22.75;52.61
74228;BME280;62587;52.352;5.006;2022-10-31T09:36:59;101956.78;;;22.74;52.92
74228;BME280;62587;52.352;5.006;2022-10-31T09:39:25;101948.03;;;22.72;52.89
74228;BME280;62587;52.352;5.006;2022-10-31T09:44:49;101928.47;;;22.72;52.79
74228;BME280;62587;52.352;5.006;2022-10-31T09:52:33;101927.41;;;22.74;52.14
74228;BME280;62587;52.352;5.006;2022-10-31T09:55:05;101932.09;;;22.71;52.51
74228;BME280;62587;52.352;5.006;2022-10-31T09:57:35;101930.28;;;22.71;52.46
74228;BME280;62587;52.352;5.006;2022-10-31T10:00:04;101929.34;;;22.72;52.34
74228;BME280;62587;52.352;5.006;2022-10-31T10:02:35;101924.94;;;22.71;52.32
74228;BME280;62587;52.352;5.006;2022-10-31T10:05:05;101925.81;;;22.72;52.34
74228;BME280;62587;52.352;5.006;2022-10-31T10:18:48;101903.69;;;22.70;52.34
74228;BME280;62587;52.352;5.006;2022-10-31T10:21:29;101906.13;;;22.73;52.40
74228;BME280;62587;52.352;5.006;2022-10-31T10:24:16;101909.59;;;22.75;52.52
74228;BME280;62587;52.352;5.006;2022-10-31T10:26:49;101905.31;;;22.72;52.44
74228;BME280;62587;52.352;5.006;2022-10-31T10:29:37;101906.25;;;22.71;52.55
74228;BME280;62587;52.352;5.006;2022-10-31T10:32:26;101896.16;;;23.03;52.26
74228;BME280;62587;52.352;5.006;2022-10-31T10:35:03;101885.50;;;23.03;51.91
74228;BME280;62587;52.352;5.006;2022-10-31T10:37:41;101880.22;;;23.01;51.82
74228;BME280;62587;52.352;5.006;2022-10-31T10:40:15;101872.00;;;23.04;51.96
74228;BME280;62587;52.352;5.006;2022-10-31T10:42:45;101874.50;;;23.07;52.34
74228;BME280;62587;52.352;5.006;2022-10-31T10:45:34;101866.47;;;23.07;52.08
74228;BME280;62587;52.352;5.006;2022-10-31T10:48:36;101866.59;;;23.06;52.21
74228;BME280;62587;52.352;5.006;2022-10-31T10:51:06;101854.06;;;23.06;52.41
74228;BME280;62587;52.352;5.006;2022-10-31T10:53:55;101855.34;;;23.01;52.41
74228;BME280;62587;52.352;5.006;2022-10-31T10:59:16;101839.06;;;22.91;52.90
74228;BME280;62587;52.352;5.006;2022-10-31T11:01:43;101828.78;;;22.85;52.95
74228;BME280;62587;52.352;5.006;2022-10-31T11:04:30;101822.50;;;22.86;52.94
74228;BME280;62587;52.352;5.006;2022-10-31T11:07:08;101820.47;;;22.90;52.77
74228;BME280;62587;52.352;5.006;2022-10-31T11:09:34;101806.16;;;22.91;52.98
74228;BME280;62587;52.352;5.006;2022-10-31T11:12:07;101816.66;;;22.94;53.38
74228;BME280;62587;52.352;5.006;2022-10-31T11:14:41;101797.09;;;22.93;53.52
74228;BME280;62587;52.352;5.006;2022-10-31T11:17:19;101800.94;;;23.02;53.46
74228;BME280;62587;52.352;5.006;2022-10-31T11:19:45;101797.34;;;23.03;53.48
74228;BME280;62587;52.352;5.006;2022-10-31T11:22:16;101791.88;;;23.04;53.50
74228;BME280;62587;52.352;5.006;2022-10-31T11:24:42;101791.31;;;22.99;53.77
74228;BME280;62587;52.352;5.006;2022-10-31T11:27:22;101781.69;;;22.97;53.95
74228;BME280;62587;52.352;5.006;2022-10-31T11:29:49;101792.63;;;22.94;53.96
74228;BME280;62587;52.352;5.006;2022-10-31T11:32:27;101781.16;;;22.92;54.68
74228;BME280;62587;52.352;5.006;2022-10-31T11:34:59;101777.72;;;22.90;54.30
74228;BME280;62587;52.352;5.006;2022-10-31T11:37:27;101784.13;;;22.87;54.30
74228;BME280;62587;52.352;5.006;2022-10-31T11:40:02;101786.06;;;22.85;54.30
74228;BME280;62587;52.352;5.006;2022-10-31T11:42:35;101783.56;;;22.82;54.39
74228;BME280;62587;52.352;5.006;2022-10-31T11:45:07;101788.34;;;22.77;54.67
74228;BME280;62587;52.352;5.006;2022-10-31T11:47:42;101778.53;;;22.78;54.58
74228;BME280;62587;52.352;5.006;2022-10-31T11:50:11;101779.53;;;22.77;54.51
74228;BME280;62587;52.352;5.006;2022-10-31T11:52:37;101775.38;;;22.85;54.34
74228;BME280;62587;52.352;5.006;2022-10-31T11:57:46;101770.78;;;22.87;54.49
74228;BME280;62587;52.352;5.006;2022-10-31T12:00:24;101758.59;;;22.83;54.80
74228;BME280;62587;52.352;5.006;2022-10-31T12:02:50;101756.78;;;22.84;54.45
74228;BME280;62587;52.352;5.006;2022-10-31T12:05:19;101751.22;;;22.87;54.79
74228;BME280;62587;52.352;5.006;2022-10-31T12:07:46;101741.72;;;22.83;55.47
74228;BME280;62587;52.352;5.006;2022-10-31T12:10:13;101735.44;;;22.84;55.38
74228;BME280;62587;52.352;5.006;2022-10-31T12:20:56;101714.19;;;22.95;55.39
74228;BME280;62587;52.352;5.006;2022-10-31T12:26:46;101705.00;;;22.99;55.06
74228;BME280;62587;52.352;5.006;2022-10-31T12:32:20;101704.75;;;22.89;55.17
74228;BME280;62587;52.352;5.006;2022-10-31T12:47:55;101685.31;;;22.87;55.44
74228;BME280;62587;52.352;5.006;2022-10-31T12:50:32;101673.78;;;22.87;55.57
74228;BME280;62587;52.352;5.006;2022-10-31T12:58:38;101652.88;;;22.93;55.48
74228;BME280;62587;52.352;5.006;2022-10-31T13:03:52;101634.50;;;22.89;55.75
74228;BME280;62587;52.352;5.006;2022-10-31T13:06:29;101627.31;;;22.89;55.92
74228;BME280;62587;52.352;5.006;2022-10-31T13:09:02;101610.56;;;22.87;55.99
74228;BME280;62587;52.352;5.006;2022-10-31T13:11:32;101600.09;;;22.84;56.21
74228;BME280;62587;52.352;5.006;2022-10-31T13:14:07;101607.88;;;22.87;56.27
74228;BME280;62587;52.352;5.006;2022-10-31T13:16:44;101595.19;;;22.91;55.10
74228;BME280;62587;52.352;5.006;2022-10-31T13:19:20;101587.25;;;22.89;55.81
74228;BME280;62587;52.352;5.006;2022-10-31T13:21:58;101581.59;;;23.06;55.81
74228;BME280;62587;52.352;5.006;2022-10-31T13:24:34;101577.44;;;23.15;55.61
74228;BME280;62587;52.352;5.006;2022-10-31T13:27:04;101563.56;;;23.22;55.46
74228;BME280;62587;52.352;5.006;2022-10-31T13:29:42;101569.19;;;23.30;54.59
74228;BME280;62587;52.352;5.006;2022-10-31T13:32:10;101571.84;;;23.30;55.10
74228;BME280;62587;52.352;5.006;2022-10-31T13:34:39;101552.28;;;23.30;55.01
74228;BME280;62587;52.352;5.006;2022-10-31T13:44:36;101546.06;;;23.06;55.21
74228;BME280;62587;52.352;5.006;2022-10-31T13:47:20;101542.06;;;22.99;55.68
74228;BME280;62587;52.352;5.006;2022-10-31T13:49:47;101533.22;;;22.98;55.46
74228;BME280;62587;52.352;5.006;2022-10-31T13:54:46;101530.97;;;22.92;55.55
74228;BME280;62587;52.352;5.006;2022-10-31T13:57:19;101525.00;;;22.89;55.91
74228;BME280;62587;52.352;5.006;2022-10-31T14:02:48;101517.31;;;22.84;55.50
74228;BME280;62587;52.352;5.006;2022-10-31T14:05:35;101507.06;;;22.78;55.95
74228;BME280;62587;52.352;5.006;2022-10-31T14:08:02;101503.00;;;22.85;55.72
74228;BME280;62587;52.352;5.006;2022-10-31T14:10:29;101500.31;;;22.85;55.79
74228;BME280;62587;52.352;5.006;2022-10-31T14:13:07;101505.78;;;22.84;55.67
74228;BME280;62587;52.352;5.006;2022-10-31T14:15:33;101497.66;;;22.85;55.80
74228;BME280;62587;52.352;5.006;2022-10-31T14:18:03;101492.09;;;22.88;55.68
74228;BME280;62587;52.352;5.006;2022-10-31T14:22:55;101501.81;;;22.89;55.42
74228;BME280;62587;52.352;5.006;2022-10-31T14:25:35;101488.78;;;22.85;55.39
74228;BME280;62587;52.352;5.006;2022-10-31T14:28:05;101493.06;;;22.87;55.38
74228;BME280;62587;52.352;5.006;2022-10-31T14:30:54;101488.50;;;22.77;55.58
74228;BME280;62587;52.352;5.006;2022-10-31T14:33:20;101476.41;;;22.71;54.69
74228;BME280;62587;52.352;5.006;2022-10-31T14:36:10;101467.25;;;22.62;54.77
74228;BME280;62587;52.352;5.006;2022-10-31T14:39:07;101463.03;;;22.58;54.83
74228;BME280;62587;52.352;5.006;2022-10-31T14:41:46;101459.84;;;22.53;54.69
74228;BME280;62587;52.352;5.006;2022-10-31T14:44:38;101450.22;;;22.51;55.37
74228;BME280;62587;52.352;5.006;2022-10-31T14:52:36;101425.91;;;22.43;55.77